Time;durP1;ratioP1;P1;durP2;ratioP2;P2;SDS_P1;SDS_P2;PMS_P1;PMS_P2;Temp;Humidity;BMP_temperature;BMP_pressure;BME280_temperature;BME280_humidity;BME280_pressure;Samples;Min_cycle;Max_cycle;Signal;HPM_P1;HPM_P2
2022/07/08 00:00:05;;;;;;;4.67;3.15;;;;;;;16.05;85.49;99286.76;4052504;86;21517;-82
2022/07/08 00:06:10;;;;;;;4.85;3.58;;;;;;;16.09;85.58;99283.37;4023654;87;21035;-82
2022/07/08 00:12:12;;;;;;;4.78;3.27;;;;;;;16.03;85.77;99282.23;4019364;87;21101;-82
2022/07/08 00:18:14;;;;;;;5.30;3.15;;;;;;;15.97;85.79;99291.55;4020752;87;21678;-81
2022/07/08 00:24:16;;;;;;;4.65;3.72;;;;;;;15.90;85.98;99290.19;4018506;87;21032;-83
2022/07/08 00:30:19;;;;;;;7.65;3.40;;;;;;;15.88;86.33;99288.41;4015294;87;21086;-82
2022/07/08 00:36:20;;;;;;;5.17;3.42;;;;;;;15.90;86.67;99291.57;4020363;87;21018;-82
2022/07/08 00:42:22;;;;;;;3.95;3.55;;;;;;;15.91;86.47;99294.52;4057602;86;21087;-82
2022/07/08 00:48:24;;;;;;;4.47;3.37;;;;;;;15.94;87.02;99290.97;4014779;87;21042;-82
2022/07/08 00:54:27;;;;;;;4.05;3.60;;;;;;;15.94;87.22;99290.17;4004910;87;21106;-83
2022/07/08 01:00:29;;;;;;;4.25;3.75;;;;;;;15.92;87.29;99284.27;4027440;87;21009;-83
2022/07/08 01:06:31;;;;;;;8.13;4.40;;;;;;;15.95;87.40;99287.02;4008939;87;21672;-82
2022/07/08 01:12:33;;;;;;;5.80;3.55;;;;;;;15.93;87.74;99286.63;4008523;87;21114;-82
2022/07/08 01:18:36;;;;;;;5.40;4.55;;;;;;;15.91;87.79;99288.23;4033360;87;21082;-83
2022/07/08 01:24:37;;;;;;;6.53;4.55;;;;;;;15.85;87.99;99295.36;4010954;87;21059;-82
2022/07/08 01:30:38;;;;;;;9.13;3.98;;;;;;;15.87;88.12;99296.52;4010509;87;21057;-83
2022/07/08 01:36:41;;;;;;;7.37;3.72;;;;;;;15.86;88.53;99295.55;4018848;87;21062;-82
2022/07/08 01:42:43;;;;;;;8.00;4.58;;;;;;;15.90;88.89;99297.67;4029430;86;21062;-83
2022/07/08 01:48:44;;;;;;;7.53;5.12;;;;;;;15.92;88.89;99295.30;4045102;85;21058;-83
2022/07/08 01:54:45;;;;;;;6.28;4.80;;;;;;;15.91;89.15;99297.27;4063621;86;21642;-82
2022/07/08 02:00:46;;;;;;;6.60;5.17;;;;;;;15.91;89.40;99298.66;4068796;86;21367;-82
2022/07/08 02:06:48;;;;;;;6.35;5.00;;;;;;;15.90;89.38;99302.61;4069451;86;21086;-83
2022/07/08 02:12:50;;;;;;;7.15;5.62;;;;;;;15.82;89.73;99307.97;4066411;86;21070;-83
2022/07/08 02:18:51;;;;;;;7.20;4.00;;;;;;;15.80;89.97;99313.72;4069892;86;21072;-83
2022/07/08 02:24:54;;;;;;;6.80;5.22;;;;;;;15.78;90.24;99318.84;4054358;86;21043;-82
2022/07/08 02:30:55;;;;;;;17.98;6.33;;;;;;;15.78;90.35;99329.30;3967590;88;21154;-82
2022/07/08 02:36:57;;;;;;;9.65;4.80;;;;;;;15.79;90.37;99335.59;4072801;86;20996;-82
2022/07/08 02:43:00;;;;;;;7.72;5.75;;;;;;;15.75;90.69;99341.73;4008298;87;21140;-82
2022/07/08 02:49:01;;;;;;;6.00;4.47;;;;;;;15.71;90.42;99347.88;4009604;87;21542;-83
2022/07/08 02:55:03;;;;;;;6.35;4.62;;;;;;;15.73;90.87;99349.61;4065165;86;21575;-82
2022/07/08 03:01:04;;;;;;;6.47;4.67;;;;;;;15.74;91.09;99358.88;4069315;86;21041;-82
2022/07/08 03:07:07;;;;;;;12.05;4.72;;;;;;;15.73;91.29;99363.41;4065669;85;21533;-82
2022/07/08 03:13:08;;;;;;;9.68;5.00;;;;;;;15.73;91.35;99373.88;4015202;87;21626;-83
2022/07/08 03:19:12;;;;;;;9.95;4.92;;;;;;;15.70;91.41;99378.81;4007199;87;21030;-83
2022/07/08 03:25:17;;;;;;;6.97;5.53;;;;;;;15.74;91.84;99385.09;4057984;86;21062;-82
2022/07/08 03:31:19;;;;;;;8.68;5.42;;;;;;;15.76;91.81;99388.25;4071783;86;21061;-83
2022/07/08 03:37:21;;;;;;;8.28;5.55;;;;;;;15.75;91.85;99390.83;3990157;87;21083;-82
2022/07/08 03:43:23;;;;;;;9.13;4.83;;;;;;;15.73;91.86;99400.09;4006893;87;21038;-82
2022/07/08 03:49:26;;;;;;;9.93;5.70;;;;;;;15.74;91.96;99394.75;4012178;87;21048;-83
2022/07/08 03:55:28;;;;;;;8.68;4.92;;;;;;;15.72;91.97;99407.39;4057572;86;21605;-83
2022/07/08 04:01:30;;;;;;;6.35;4.65;;;;;;;15.76;92.20;99406.19;3991009;87;21018;-83
2022/07/08 04:07:34;;;;;;;6.90;5.25;;;;;;;15.78;92.34;99409.93;4004369;87;21536;-81
2022/07/08 04:13:37;;;;;;;8.58;5.20;;;;;;;15.78;92.03;99413.48;4023390;87;21098;-83
2022/07/08 04:19:40;;;;;;;10.43;4.90;;;;;;;15.81;92.48;99426.48;4002820;87;21013;-82
2022/07/08 04:25:44;;;;;;;12.18;5.92;;;;;;;15.85;92.49;99430.02;4049939;86;21579;-82
2022/07/08 04:31:45;;;;;;;10.15;6.08;;;;;;;15.90;92.66;99439.27;4071037;86;21146;-83
2022/07/08 04:37:48;;;;;;;9.18;4.72;;;;;;;15.93;92.41;99445.37;4020362;87;21142;-82
2022/07/08 04:43:49;;;;;;;6.55;4.42;;;;;;;16.01;92.74;99448.31;4010303;87;21561;-83
2022/07/08 04:49:51;;;;;;;7.83;4.40;;;;;;;16.07;92.72;99452.23;3997075;87;21110;-82
2022/07/08 04:55:52;;;;;;;8.53;5.22;;;;;;;16.11;92.73;99452.22;4022124;87;21039;-84
2022/07/08 05:01:53;;;;;;;10.80;5.90;;;;;;;16.13;92.75;99455.38;4007959;87;21038;-83
2022/07/08 05:07:56;;;;;;;12.20;5.83;;;;;;;16.18;92.72;99464.02;4006158;87;21430;-84
2022/07/08 05:13:57;;;;;;;11.00;5.90;;;;;;;16.21;92.56;99459.08;3927992;88;21383;-83
2022/07/08 05:19:59;;;;;;;12.85;5.17;;;;;;;16.28;92.51;99466.55;4022364;86;21565;-83
2022/07/08 05:26:00;;;;;;;7.83;4.53;;;;;;;16.33;92.71;99476.61;4081611;86;21672;-83
2022/07/08 05:32:04;;;;;;;8.43;6.03;;;;;;;16.40;92.74;99471.03;4076764;86;21141;-82
2022/07/08 05:38:05;;;;;;;9.85;6.10;;;;;;;16.50;92.82;99473.00;4077013;85;21555;-84
2022/07/08 05:44:06;;;;;;;10.40;5.53;;;;;;;16.61;92.79;99483.98;4012861;87;21753;-84
2022/07/08 05:50:08;;;;;;;10.10;5.20;;;;;;;16.74;92.99;99474.05;3971792;88;21706;-84
2022/07/08 05:56:10;;;;;;;8.93;5.53;;;;;;;16.85;92.87;99478.30;4019694;87;21038;-82
2022/07/08 06:02:12;;;;;;;7.65;5.62;;;;;;;16.95;92.38;99480.23;4019504;87;21655;-84
2022/07/08 06:08:14;;;;;;;5.87;4.47;;;;;;;17.09;91.97;99488.42;4022465;87;21061;-83
2022/07/08 06:14:15;;;;;;;8.70;4.92;;;;;;;17.20;91.72;99493.87;4051224;86;21004;-84
2022/07/08 06:20:17;;;;;;;16.52;5.80;;;;;;;17.32;91.66;99491.98;4056008;86;21026;-84
2022/07/08 06:26:20;;;;;;;8.05;4.80;;;;;;;17.47;91.39;99495.45;4064604;86;21078;-84
2022/07/08 06:32:22;;;;;;;5.22;3.85;;;;;;;17.62;91.00;99501.08;4057054;86;21607;-84
2022/07/08 06:38:23;;;;;;;7.90;5.58;;;;;;;17.69;90.56;99507.33;4050573;86;21011;-84
2022/07/08 06:44:25;;;;;;;6.33;4.37;;;;;;;17.81;90.33;99507.39;3956691;88;21144;-82
2022/07/08 06:50:26;;;;;;;11.57;4.35;;;;;;;17.90;90.18;99522.34;4026694;88;21037;-83
2022/07/08 06:56:29;;;;;;;9.33;5.17;;;;;;;18.04;89.87;99520.04;3971116;88;20994;-83
2022/07/08 07:02:30;;;;;;;5.72;3.95;;;;;;;18.19;89.79;99524.22;3945724;89;21595;-83
2022/07/08 07:08:32;;;;;;;7.72;3.60;;;;;;;18.33;89.81;99524.85;3916393;89;21111;-83
2022/07/08 07:14:34;;;;;;;9.43;4.65;;;;;;;18.59;89.53;99533.06;3926740;89;21058;-83
2022/07/08 07:20:35;;;;;;;6.60;4.35;;;;;;;18.77;89.15;99530.06;3972693;88;21078;-83
2022/07/08 07:26:36;;;;;;;8.75;4.50;;;;;;;18.92;88.98;99535.00;3979060;87;21054;-83
2022/07/08 07:32:38;;;;;;;6.78;5.00;;;;;;;19.05;88.49;99533.83;3978338;88;21029;-83
2022/07/08 07:38:40;;;;;;;7.35;4.42;;;;;;;19.12;87.89;99528.95;3951489;87;21558;-83
2022/07/08 07:44:44;;;;;;;8.25;4.33;;;;;;;19.20;87.48;99531.05;3894366;87;21542;-82
2022/07/08 07:50:45;;;;;;;6.45;4.33;;;;;;;19.29;87.29;99541.05;4012985;87;21050;-83
2022/07/08 07:56:47;;;;;;;11.33;5.12;;;;;;;19.38;86.97;99551.80;4014660;87;21030;-84
2022/07/08 08:02:48;;;;;;;8.55;4.62;;;;;;;19.48;86.19;99544.52;4021129;87;21102;-82
2022/07/08 08:08:49;;;;;;;6.37;3.92;;;;;;;19.60;85.92;99544.70;4012828;87;21114;-83
2022/07/08 08:14:52;;;;;;;8.35;3.58;;;;;;;19.93;85.73;99547.91;4010366;87;21058;-84
2022/07/08 08:20:55;;;;;;;6.97;3.95;;;;;;;20.30;85.47;99546.08;4013470;87;21668;-84
2022/07/08 08:26:58;;;;;;;5.55;3.75;;;;;;;20.61;84.89;99548.82;4013293;87;21011;-84
2022/07/08 08:33:03;;;;;;;8.00;3.42;;;;;;;20.69;83.65;99551.64;4046867;85;21082;-83
2022/07/08 08:39:04;;;;;;;6.25;4.05;;;;;;;20.84;82.65;99545.34;4029676;87;21383;-84
2022/07/08 08:45:08;;;;;;;8.43;5.20;;;;;;;21.00;81.91;99543.23;3990891;88;21128;-84
2022/07/08 08:51:09;;;;;;;10.43;3.75;;;;;;;21.17;81.51;99543.44;4049755;86;21105;-83
2022/07/08 08:57:12;;;;;;;4.47;2.98;;;;;;;21.56;80.97;99543.30;4042795;87;21594;-83
2022/07/08 09:03:13;;;;;;;6.83;3.62;;;;;;;21.96;80.12;99542.50;3988145;88;21038;-83
2022/07/08 09:09:16;;;;;;;10.75;5.30;;;;;;;21.93;79.25;99542.78;4044809;87;21037;-82
2022/07/08 09:15:18;;;;;;;5.62;3.50;;;;;;;22.06;77.81;99542.84;3983208;88;21878;-85
2022/07/08 09:21:29;;;;;;;7.55;4.10;;;;;;;22.03;78.25;99545.11;4046958;86;21026;-84
2022/07/08 09:27:33;;;;;;;8.28;4.05;;;;;;;22.41;77.40;99541.25;4050174;86;20986;-84
2022/07/08 09:33:38;;;;;;;5.35;3.35;;;;;;;22.62;76.60;99538.51;4009699;87;21109;-84
2022/07/08 09:39:40;;;;;;;8.65;3.80;;;;;;;22.23;75.64;99549.95;3987500;88;21050;-84
2022/07/08 09:45:43;;;;;;;10.95;4.62;;;;;;;21.79;75.64;99552.10;4055545;86;21034;-83
2022/07/08 09:51:46;;;;;;;4.55;3.42;;;;;;;21.46;75.79;99550.70;4064683;86;21036;-84
2022/07/08 09:57:47;;;;;;;7.00;4.00;;;;;;;21.48;75.76;99546.08;4021722;87;21070;-84
2022/07/08 10:03:49;;;;;;;5.50;3.87;;;;;;;21.54;76.07;99527.02;4052127;86;21066;-83
2022/07/08 10:09:54;;;;;;;5.30;3.50;;;;;;;21.88;75.34;99525.81;3997041;87;21923;-82
2022/07/08 10:15:59;;;;;;;6.03;4.10;;;;;;;22.51;73.91;99535.20;4052375;87;20982;-84
2022/07/08 10:22:05;;;;;;;4.72;2.77;;;;;;;22.94;73.77;99536.33;4050371;87;21065;-84
2022/07/08 10:29:05;;;;;;;12.82;4.37;;;;;;;22.50;72.58;99553.97;3956361;88;21127;-85
2022/07/08 10:42:25;;;;;;;7.20;3.20;;;;;;;20.16;75.14;99563.78;3980675;88;21091;-83
2022/07/08 10:48:54;;;;;;;6.85;3.72;;;;;;;19.22;76.08;99555.78;3931574;88;21754;-82
2022/07/08 10:55:15;;;;;;;8.13;5.25;;;;;;;18.93;77.39;99553.83;3927313;89;21080;-82
2022/07/08 11:01:25;;;;;;;11.35;5.00;;;;;;;18.95;77.63;99548.66;3927083;89;21056;-82
2022/07/08 17:47:36;;;;;;;4.50;3.87;;;;;;;16.52;98.74;99614.30;4631152;74;23388;-84
2022/07/08 17:53:37;;;;;;;6.80;3.87;;;;;;;16.37;98.35;99621.03;4544249;76;20992;-84
2022/07/08 18:00:05;;;;;;;11.22;4.42;;;;;;;16.35;98.88;99633.07;4378559;79;21058;-84
2022/07/08 18:06:30;;;;;;;;;;;;;;;16.36;99.13;99640.19;4539914;76;21026;-83
2022/07/08 18:12:41;;;;;;;6.45;5.20;;;;;;;16.29;99.63;99647.09;4501698;76;20598;-83
2022/07/08 18:18:56;;;;;;;8.60;6.33;;;;;;;16.21;99.42;99639.23;4529512;76;20956;-84
2022/07/08 18:25:07;;;;;;;13.58;6.12;;;;;;;16.15;99.39;99642.97;4533537;76;20997;-83
2022/07/08 18:31:19;;;;;;;7.87;4.75;;;;;;;16.11;99.71;99642.20;4496985;76;21013;-83
2022/07/08 18:37:37;;;;;;;5.53;4.12;;;;;;;16.11;99.84;99638.64;4542901;76;21448;-83
2022/07/08 18:43:38;;;;;;;6.28;4.58;;;;;;;16.06;99.17;99641.80;4538070;75;20972;-84
2022/07/08 18:49:55;;;;;;;5.65;3.55;;;;;;;15.99;99.53;99642.58;4503540;76;20990;-85
2022/07/08 18:56:06;;;;;;;6.35;4.35;;;;;;;15.98;99.82;99645.73;4498811;76;21082;-83
2022/07/08 19:02:13;;;;;;;7.45;4.08;;;;;;;15.93;99.75;99653.83;4525671;76;20996;-83
2022/07/08 19:08:21;;;;;;;7.47;4.37;;;;;;;15.81;100.00;99655.61;4407637;78;21586;-83
2022/07/08 19:14:23;;;;;;;8.80;5.42;;;;;;;15.69;100.00;99665.05;4389259;77;21032;-83
2022/07/08 19:20:24;;;;;;;7.40;4.75;;;;;;;15.68;100.00;99675.91;4335439;79;20971;-83
2022/07/08 19:26:26;;;;;;;7.58;4.67;;;;;;;15.71;100.00;99689.50;4527690;76;21022;-83
2022/07/08 19:53:23;;;;;;;10.40;5.37;;;;;;;15.21;100.00;99714.77;4571430;76;20993;-82
2022/07/08 20:07:06;;;;;;;8.45;7.03;;;;;;;15.40;100.00;99718.62;4531877;76;21027;-82
2022/07/08 20:13:14;;;;;;;8.98;5.92;;;;;;;15.40;100.00;99724.13;4562830;76;20967;-82
2022/07/08 20:19:16;;;;;;;10.28;7.97;;;;;;;15.45;100.00;99729.28;4521489;77;21071;-83
2022/07/08 20:31:50;;;;;;;14.15;7.45;;;;;;;15.38;100.00;99724.30;4458297;77;21010;-82
2022/07/08 20:38:00;;;;;;;10.32;7.00;;;;;;;15.40;100.00;99729.66;4548348;76;21071;-82
2022/07/08 20:44:16;;;;;;;18.90;6.90;;;;;;;15.44;100.00;99734.58;4556856;76;21051;-83
2022/07/08 20:50:23;;;;;;;10.50;7.58;;;;;;;15.42;100.00;99732.82;4525815;77;21035;-82
2022/07/08 20:56:24;;;;;;;15.98;8.10;;;;;;;15.43;100.00;99732.20;4511090;76;21011;-83
2022/07/08 21:02:29;;;;;;;12.68;8.05;;;;;;;15.32;100.00;99732.15;4520737;76;21006;-82
2022/07/08 21:08:30;;;;;;;13.58;8.23;;;;;;;15.29;100.00;99730.17;4516123;76;20995;-82
2022/07/08 21:14:53;;;;;;;9.70;7.17;;;;;;;15.31;100.00;99726.44;4553751;76;20996;-82
2022/07/08 21:21:02;;;;;;;14.30;8.25;;;;;;;15.25;100.00;99723.83;4527789;76;20979;-82
2022/07/08 21:27:04;;;;;;;11.22;8.03;;;;;;;15.30;100.00;99728.21;4510668;76;21019;-82
2022/07/08 21:33:13;;;;;;;18.45;10.03;;;;;;;15.35;100.00;99735.51;4532703;76;21077;-83
2022/07/08 21:39:19;;;;;;;15.90;10.95;;;;;;;15.25;100.00;99728.58;4435687;77;21012;-82
2022/07/08 21:45:29;;;;;;;9.63;6.95;;;;;;;15.23;100.00;99730.34;4536514;76;21526;-83
2022/07/08 21:51:33;;;;;;;15.43;8.18;;;;;;;15.26;100.00;99726.81;4519811;76;20999;-82
2022/07/08 21:57:36;;;;;;;11.60;8.20;;;;;;;15.30;100.00;99735.11;4540291;76;21511;-82
2022/07/08 22:03:39;;;;;;;12.93;7.83;;;;;;;15.25;100.00;99727.97;4535448;76;21002;-83
2022/07/08 22:09:40;;;;;;;12.65;6.28;;;;;;;15.18;100.00;99729.34;4531468;76;20989;-82
2022/07/08 22:15:43;;;;;;;10.20;6.12;;;;;;;15.18;100.00;99722.44;4473730;76;21113;-83
2022/07/08 22:22:01;;;;;;;10.65;6.37;;;;;;;15.08;100.00;99725.16;4542725;76;21958;-83
2022/07/08 22:28:04;;;;;;;12.40;6.05;;;;;;;14.92;100.00;99722.72;4497946;77;20996;-83
2022/07/08 22:34:15;;;;;;;8.73;6.25;;;;;;;14.81;100.00;99726.01;4558238;76;21013;-82
2022/07/08 22:40:19;;;;;;;11.83;6.65;;;;;;;14.80;100.00;99733.28;4476530;77;20954;-83
2022/07/08 22:46:26;;;;;;;18.15;7.08;;;;;;;14.75;100.00;99733.03;4495275;76;21022;-83
2022/07/08 22:52:37;;;;;;;16.75;7.47;;;;;;;14.81;100.00;99732.90;4529886;76;21038;-83
2022/07/08 22:58:40;;;;;;;14.90;7.95;;;;;;;14.83;100.00;99732.52;4547693;76;21910;-83
2022/07/08 23:04:41;;;;;;;15.05;7.03;;;;;;;14.76;100.00;99733.26;4512838;76;21075;-84
2022/07/08 23:10:47;;;;;;;13.90;7.33;;;;;;;14.72;100.00;99733.81;4437768;78;21001;-83
2022/07/08 23:16:53;;;;;;;9.75;6.70;;;;;;;14.68;100.00;99737.72;4407482;78;21122;-82
2022/07/08 23:22:54;;;;;;;11.17;6.70;;;;;;;14.72;100.00;99748.96;4476495;76;21000;-83
2022/07/08 23:28:56;;;;;;;13.35;7.15;;;;;;;14.75;100.00;99738.55;4496048;76;21036;-83
2022/07/08 23:34:57;;;;;;;16.50;7.42;;;;;;;14.69;100.00;99741.47;4519044;76;21089;-84
2022/07/08 23:41:02;;;;;;;14.18;6.37;;;;;;;14.64;100.00;99744.61;4499568;76;21076;-83
2022/07/08 23:47:04;;;;;;;6.17;5.08;;;;;;;14.65;100.00;99742.63;4518620;76;21039;-83
2022/07/08 23:53:08;;;;;;;14.68;5.97;;;;;;;14.61;100.00;99748.09;4535181;76;21008;-83
2022/07/08 23:59:10;;;;;;;12.37;5.30;;;;;;;14.64;100.00;99752.08;4519896;75;21027;-83
